Time;durP1;ratioP1;P1;durP2;ratioP2;P2;SDS_P1;SDS_P2;PMS_P1;PMS_P2;Temp;Humidity;BMP_temperature;BMP_pressure;BME280_temperature;BME280_humidity;BME280_pressure;Samples;Min_cycle;Max_cycle;Signal;HPM_P1;HPM_P2
2021/08/20 00:02:12;;;;;;;1.43;0.60;;;17.40;99.90;;;;;;5033244;28;20451;-84
2021/08/20 00:04:39;;;;;;;0.50;0.40;;;17.30;99.90;;;;;;5033727;28;20465;-84
2021/08/20 00:07:07;;;;;;;0.30;0.30;;;17.40;99.90;;;;;;5033258;28;20477;-84
2021/08/20 00:09:34;;;;;;;2.00;0.40;;;17.40;99.90;;;;;;5033067;28;20474;-84
2021/08/20 00:12:01;;;;;;;0.50;0.50;;;17.40;99.90;;;;;;5033294;28;20474;-84
2021/08/20 00:14:28;;;;;;;0.50;0.40;;;17.40;99.90;;;;;;5033226;28;20449;-84
2021/08/20 00:16:55;;;;;;;0.30;0.30;;;17.40;99.90;;;;;;5033184;28;20510;-84
2021/08/20 00:19:22;;;;;;;0.40;0.40;;;17.40;99.90;;;;;;5033414;28;20454;-84
2021/08/20 00:21:48;;;;;;;0.50;0.33;;;17.30;99.90;;;;;;5033147;28;20473;-84
2021/08/20 00:24:17;;;;;;;0.40;0.40;;;17.30;99.90;;;;;;5032788;28;20442;-84
2021/08/20 00:26:44;;;;;;;0.50;0.30;;;17.40;99.90;;;;;;5033231;28;20919;-84
2021/08/20 00:29:22;;;;;;;0.40;0.30;;;17.40;99.90;;;;;;5033162;28;20485;-84
2021/08/20 00:31:49;;;;;;;0.63;0.40;;;17.40;99.90;;;;;;5032784;28;20467;-84
2021/08/20 00:34:16;;;;;;;0.40;0.30;;;17.30;99.90;;;;;;5032980;28;20435;-84
2021/08/20 00:36:43;;;;;;;2.13;0.40;;;17.30;99.90;;;;;;5033645;28;20457;-84
2021/08/20 00:39:10;;;;;;;0.93;0.57;;;17.30;99.90;;;;;;5033779;28;20446;-84
2021/08/20 00:41:39;;;;;;;0.57;0.40;;;17.30;99.90;;;;;;5032967;28;20453;-84
2021/08/20 00:44:06;;;;;;;0.40;0.40;;;17.30;99.90;;;;;;5032728;28;20981;-84
2021/08/20 00:46:33;;;;;;;0.43;0.40;;;17.30;99.90;;;;;;5032364;28;20962;-84
2021/08/20 00:49:00;;;;;;;0.40;0.40;;;17.30;99.90;;;;;;5032623;28;20459;-84
2021/08/20 00:51:30;;;;;;;0.40;0.40;;;17.30;99.90;;;;;;5033011;28;20454;-84
2021/08/20 00:53:57;;;;;;;0.60;0.30;;;17.30;99.90;;;;;;5033552;28;20443;-84
2021/08/20 00:56:25;;;;;;;0.50;0.40;;;17.30;99.90;;;;;;5032801;28;20462;-84
2021/08/20 00:58:53;;;;;;;0.63;0.47;;;17.30;99.90;;;;;;5032836;28;20525;-84
2021/08/20 01:01:21;;;;;;;0.30;0.30;;;17.30;99.90;;;;;;5034935;28;20438;-84
2021/08/20 01:03:48;;;;;;;0.70;0.40;;;17.30;99.90;;;;;;5036047;28;20996;-84
2021/08/20 01:06:15;;;;;;;0.97;0.47;;;17.30;99.90;;;;;;5035972;28;20958;-85
2021/08/20 01:08:42;;;;;;;0.40;0.40;;;17.30;99.90;;;;;;5036432;28;20836;-85
2021/08/20 01:11:12;;;;;;;0.30;0.30;;;17.20;99.90;;;;;;5036359;28;20530;-85
2021/08/20 01:13:41;;;;;;;0.80;0.80;;;17.20;99.90;;;;;;5035908;28;20958;-85
2021/08/20 01:16:10;;;;;;;0.87;0.40;;;17.20;99.90;;;;;;5036393;28;20801;-85
2021/08/20 01:18:39;;;;;;;0.60;0.53;;;17.20;99.90;;;;;;5036172;28;20438;-85
2021/08/20 01:21:08;;;;;;;0.30;0.30;;;17.20;99.90;;;;;;5035836;28;20435;-85
2021/08/20 01:23:38;;;;;;;0.87;0.33;;;17.20;99.90;;;;;;5035827;28;21051;-85
2021/08/20 01:26:07;;;;;;;0.63;0.50;;;17.10;99.90;;;;;;5036045;28;20431;-85
2021/08/20 01:28:34;;;;;;;3.20;0.70;;;17.20;99.90;;;;;;5035666;28;20442;-85
2021/08/20 01:31:01;;;;;;;0.40;0.40;;;17.10;99.90;;;;;;5035914;28;20447;-85
2021/08/20 01:33:29;;;;;;;1.13;0.50;;;17.10;99.90;;;;;;5035997;28;20479;-82
2021/08/20 01:35:57;;;;;;;0.43;0.43;;;17.10;99.90;;;;;;5035805;28;20454;-82
2021/08/20 01:38:31;;;;;;;0.70;0.70;;;17.10;99.90;;;;;;5035666;28;20439;-82
2021/08/20 01:40:58;;;;;;;0.30;0.30;;;17.10;99.90;;;;;;5035735;28;20443;-83
2021/08/20 01:43:43;;;;;;;0.73;0.30;;;17.10;99.90;;;;;;5035584;28;20475;-83
2021/08/20 01:46:12;;;;;;;0.40;0.37;;;17.10;99.90;;;;;;5034521;28;20458;-83
2021/08/20 01:48:58;;;;;;;0.57;0.30;;;17.10;99.90;;;;;;5035577;28;20481;-82
2021/08/20 01:51:31;;;;;;;0.47;0.40;;;17.10;99.90;;;;;;5035374;28;20529;-83
2021/08/20 01:54:04;;;;;;;0.40;0.40;;;17.00;99.90;;;;;;5035194;28;20934;-82
2021/08/20 01:56:33;;;;;;;0.53;0.53;;;17.00;99.90;;;;;;5035479;28;20899;-85
2021/08/20 01:59:01;;;;;;;0.90;0.80;;;17.00;99.90;;;;;;5035307;28;20965;-86
2021/08/20 02:01:35;;;;;;;0.40;0.33;;;17.00;99.90;;;;;;5035516;28;20431;-86
2021/08/20 02:04:02;;;;;;;0.73;0.40;;;17.00;99.90;;;;;;5035255;28;20423;-86
2021/08/20 02:06:30;;;;;;;0.50;0.40;;;17.00;99.90;;;;;;5035404;28;20442;-82
2021/08/20 02:08:57;;;;;;;0.40;0.40;;;17.00;99.90;;;;;;5035215;28;20482;-83
2021/08/20 02:11:29;;;;;;;0.40;0.30;;;17.00;99.90;;;;;;5035259;28;20451;-83
2021/08/20 02:13:57;;;;;;;0.40;0.40;;;17.00;99.90;;;;;;5034587;28;20813;-83
2021/08/20 02:16:25;;;;;;;0.30;0.30;;;17.00;99.90;;;;;;5034918;28;20465;-83
2021/08/20 02:19:07;;;;;;;0.40;0.40;;;17.00;99.90;;;;;;5035051;28;20451;-83
2021/08/20 02:21:43;;;;;;;0.40;0.37;;;17.00;99.90;;;;;;5035016;28;20458;-83
2021/08/20 02:24:19;;;;;;;0.40;0.40;;;17.00;99.90;;;;;;5035036;28;20452;-83
2021/08/20 02:26:58;;;;;;;0.60;0.50;;;17.00;99.90;;;;;;5035444;28;20439;-83
2021/08/20 02:29:32;;;;;;;1.10;0.57;;;17.00;99.90;;;;;;5034821;28;20466;-83
2021/08/20 02:32:00;;;;;;;0.40;0.40;;;17.00;99.90;;;;;;5034812;28;20830;-82
2021/08/20 02:34:27;;;;;;;1.30;0.47;;;16.90;99.90;;;;;;5034495;28;20470;-83
2021/08/20 02:36:54;;;;;;;0.30;0.30;;;16.90;99.90;;;;;;5035379;28;20451;-83
2021/08/20 02:39:20;;;;;;;0.40;0.30;;;16.90;99.90;;;;;;5034468;28;20466;-83
2021/08/20 02:41:47;;;;;;;0.30;0.30;;;16.90;99.90;;;;;;5034199;28;20997;-83
2021/08/20 02:44:18;;;;;;;0.60;0.37;;;16.90;99.90;;;;;;5034317;28;20446;-84
2021/08/20 02:46:45;;;;;;;0.77;0.40;;;16.90;99.90;;;;;;5034341;28;20454;-84
2021/08/20 02:49:26;;;;;;;0.50;0.40;;;16.90;99.90;;;;;;5034968;28;20802;-83
2021/08/20 02:51:56;;;;;;;0.30;0.30;;;16.90;99.90;;;;;;5034154;28;20990;-86
2021/08/20 02:54:23;;;;;;;0.40;0.40;;;17.00;99.90;;;;;;5034350;28;20461;-85
2021/08/20 02:56:50;;;;;;;0.30;0.30;;;16.90;99.90;;;;;;5034848;28;20445;-85
2021/08/20 02:59:17;;;;;;;0.60;0.60;;;16.90;99.90;;;;;;5034254;28;20450;-86
2021/08/20 03:04:46;;;;;;;0.30;0.30;;;16.90;99.90;;;;;;5032808;28;20443;-86
2021/08/20 03:07:29;;;;;;;0.37;0.37;;;16.90;99.90;;;;;;5034705;28;20446;-86
2021/08/20 03:10:04;;;;;;;1.10;0.40;;;16.90;99.90;;;;;;5035077;28;20977;-86
2021/08/20 03:12:31;;;;;;;0.40;0.40;;;16.90;99.90;;;;;;5034430;28;20465;-86
2021/08/20 03:15:13;;;;;;;0.40;0.40;;;16.90;99.90;;;;;;5034279;28;20558;-86
2021/08/20 03:17:40;;;;;;;0.77;0.37;;;16.90;99.90;;;;;;5034263;28;20494;-86
2021/08/20 03:20:10;;;;;;;0.70;0.40;;;16.90;99.90;;;;;;5033742;28;20908;-84
2021/08/20 03:22:37;;;;;;;0.30;0.30;;;16.90;99.90;;;;;;5034121;28;20459;-84
2021/08/20 03:27:47;;;;;;;0.80;0.60;;;16.90;99.90;;;;;;5033864;28;20434;-84
2021/08/20 03:30:14;;;;;;;2.30;0.70;;;16.90;99.90;;;;;;5016669;28;20486;-84
2021/08/20 03:32:41;;;;;;;0.40;0.30;;;16.90;99.90;;;;;;5033399;28;20974;-84
2021/08/20 03:35:10;;;;;;;0.70;0.70;;;16.90;99.90;;;;;;5033735;28;20450;-84
2021/08/20 03:37:46;;;;;;;0.60;0.37;;;16.90;99.90;;;;;;5033575;28;20442;-84
2021/08/20 03:40:45;;;;;;;0.83;0.43;;;16.90;99.90;;;;;;5033622;28;20442;-85
2021/08/20 03:43:30;;;;;;;0.60;0.50;;;16.90;99.90;;;;;;5033878;28;20466;-85
2021/08/20 03:45:57;;;;;;;0.93;0.73;;;16.90;99.90;;;;;;5033445;28;20419;-85
2021/08/20 03:48:23;;;;;;;0.80;0.43;;;16.90;99.90;;;;;;5033360;28;20475;-85
2021/08/20 03:50:52;;;;;;;0.60;0.40;;;16.80;99.90;;;;;;5033608;28;20494;-85
2021/08/20 03:53:18;;;;;;;0.30;0.30;;;16.80;99.90;;;;;;5033453;28;20474;-85
2021/08/20 03:55:45;;;;;;;0.30;0.30;;;16.80;99.90;;;;;;5033797;28;20451;-85
2021/08/20 03:58:13;;;;;;;0.70;0.60;;;16.80;99.90;;;;;;5033138;28;20455;-85
2021/08/20 04:00:40;;;;;;;0.40;0.40;;;16.80;99.90;;;;;;5033721;28;20474;-85
2021/08/20 04:03:07;;;;;;;0.50;0.40;;;16.80;99.90;;;;;;5033426;28;20462;-85
2021/08/20 04:05:33;;;;;;;0.30;0.30;;;16.80;99.90;;;;;;5033136;28;20947;-85
2021/08/20 04:08:01;;;;;;;0.73;0.73;;;16.80;99.90;;;;;;5033449;28;20451;-85
2021/08/20 04:10:28;;;;;;;0.30;0.30;;;16.80;99.90;;;;;;5033609;28;20478;-81
2021/08/20 04:12:55;;;;;;;0.40;0.40;;;16.80;99.90;;;;;;5033163;28;20482;-82
2021/08/20 04:15:21;;;;;;;1.17;0.40;;;16.80;99.90;;;;;;5033180;28;20454;-81
2021/08/20 04:17:48;;;;;;;0.40;0.40;;;16.80;99.90;;;;;;5033146;28;20450;-82
2021/08/20 04:20:15;;;;;;;0.83;0.50;;;16.80;99.90;;;;;;5032878;28;20992;-82
2021/08/20 04:22:42;;;;;;;0.50;0.40;;;16.80;99.90;;;;;;5033226;28;20929;-85
2021/08/20 04:25:10;;;;;;;0.50;0.40;;;16.80;99.90;;;;;;5033177;28;20443;-85
2021/08/20 04:27:37;;;;;;;0.40;0.40;;;16.80;99.90;;;;;;5033121;28;20454;-85
2021/08/20 04:30:04;;;;;;;0.47;0.47;;;16.80;99.90;;;;;;5032768;28;20849;-85
2021/08/20 04:32:30;;;;;;;0.40;0.40;;;16.70;99.90;;;;;;5033083;28;20463;-85
2021/08/20 04:34:57;;;;;;;0.50;0.47;;;16.70;99.90;;;;;;5033923;28;20470;-85
2021/08/20 04:37:24;;;;;;;1.90;0.43;;;16.70;99.90;;;;;;5037005;28;20454;-85
2021/08/20 04:39:51;;;;;;;0.50;0.50;;;16.70;99.90;;;;;;5037053;28;20435;-85
2021/08/20 04:42:19;;;;;;;0.40;0.30;;;16.70;99.90;;;;;;5036522;28;21076;-85
2021/08/20 04:44:46;;;;;;;0.40;0.30;;;16.70;99.90;;;;;;5036881;28;20458;-85
2021/08/20 04:47:12;;;;;;;0.30;0.30;;;16.70;99.90;;;;;;5036396;28;20997;-85
2021/08/20 04:49:39;;;;;;;0.40;0.30;;;16.70;99.90;;;;;;5037403;28;20866;-85
2021/08/20 04:52:07;;;;;;;0.40;0.30;;;16.70;99.90;;;;;;5036471;28;20469;-85
2021/08/20 04:54:33;;;;;;;1.17;0.53;;;16.70;99.90;;;;;;5036706;28;20461;-85
2021/08/20 04:57:00;;;;;;;0.40;0.40;;;16.70;99.90;;;;;;5036689;28;20855;-82
2021/08/20 04:59:28;;;;;;;0.40;0.30;;;16.80;99.90;;;;;;5036238;28;20459;-81
2021/08/20 05:01:55;;;;;;;0.67;0.40;;;16.70;99.90;;;;;;5036464;28;20475;-81
2021/08/20 05:04:21;;;;;;;0.97;0.43;;;16.80;99.90;;;;;;5036202;28;20938;-82
2021/08/20 05:06:49;;;;;;;0.93;0.33;;;16.80;99.90;;;;;;5036444;28;20454;-82
2021/08/20 05:09:15;;;;;;;0.40;0.40;;;16.80;99.90;;;;;;5036523;28;20470;-82
2021/08/20 05:11:42;;;;;;;0.40;0.40;;;16.80;99.90;;;;;;5036182;28;20540;-82
2021/08/20 05:14:09;;;;;;;0.40;0.40;;;16.80;99.90;;;;;;5036859;28;20458;-82
2021/08/20 05:16:37;;;;;;;1.47;0.50;;;16.80;99.90;;;;;;5035965;28;20975;-81
2021/08/20 05:19:04;;;;;;;0.50;0.40;;;16.80;99.90;;;;;;5036024;28;20451;-82
2021/08/20 05:21:30;;;;;;;0.40;0.40;;;16.80;99.90;;;;;;5036066;28;20450;-82
2021/08/20 05:23:58;;;;;;;0.30;0.30;;;16.80;99.90;;;;;;5036114;28;20477;-81
2021/08/20 05:26:25;;;;;;;0.73;0.50;;;16.80;99.90;;;;;;5035761;28;20454;-82
2021/08/20 05:28:52;;;;;;;0.60;0.40;;;16.90;99.90;;;;;;5035829;28;20868;-81
2021/08/20 05:31:19;;;;;;;0.30;0.30;;;16.90;99.90;;;;;;5035946;28;20482;-85
2021/08/20 05:33:47;;;;;;;0.40;0.37;;;16.90;99.90;;;;;;5036022;28;20475;-85
2021/08/20 05:36:14;;;;;;;0.40;0.40;;;17.00;99.90;;;;;;5035952;28;20821;-86
2021/08/20 05:38:40;;;;;;;0.40;0.40;;;17.00;99.90;;;;;;5035607;28;20435;-86
2021/08/20 05:41:07;;;;;;;0.50;0.30;;;17.00;99.90;;;;;;5035802;28;20454;-85
2021/08/20 05:43:34;;;;;;;0.50;0.37;;;17.10;99.90;;;;;;5035899;28;20470;-86
2021/08/20 05:46:01;;;;;;;0.37;0.30;;;17.10;99.90;;;;;;5035636;28;20430;-86
2021/08/20 05:48:28;;;;;;;1.07;0.37;;;17.20;99.90;;;;;;5034383;28;20536;-85
2021/08/20 05:50:56;;;;;;;0.40;0.40;;;17.20;99.90;;;;;;5035349;28;20485;-85
2021/08/20 05:53:22;;;;;;;0.57;0.57;;;17.20;99.90;;;;;;5035220;28;20982;-85
2021/08/20 05:55:49;;;;;;;0.40;0.30;;;17.30;99.90;;;;;;5036470;28;20458;-85
2021/08/20 05:58:16;;;;;;;0.30;0.30;;;17.30;99.90;;;;;;5035248;28;20442;-85
2021/08/20 06:00:42;;;;;;;0.30;0.30;;;17.40;99.90;;;;;;5035550;28;20427;-85
2021/08/20 06:03:09;;;;;;;1.03;0.40;;;17.40;99.90;;;;;;5035734;28;20475;-85
2021/08/20 06:05:39;;;;;;;0.60;0.40;;;17.40;99.90;;;;;;5035175;28;20951;-85
2021/08/20 06:08:07;;;;;;;5.03;0.70;;;17.40;99.90;;;;;;5035653;28;20439;-85
2021/08/20 06:10:34;;;;;;;0.43;0.40;;;17.50;99.90;;;;;;5034977;28;20477;-82
2021/08/20 06:13:02;;;;;;;0.50;0.30;;;17.50;99.90;;;;;;5034865;28;20463;-81
2021/08/20 06:15:29;;;;;;;0.80;0.60;;;17.50;99.90;;;;;;5034802;28;20451;-82
2021/08/20 06:17:56;;;;;;;0.70;0.70;;;17.60;99.90;;;;;;5035178;28;20453;-82
2021/08/20 06:20:22;;;;;;;0.60;0.40;;;17.60;99.90;;;;;;5035463;28;20841;-82
2021/08/20 06:22:49;;;;;;;0.40;0.40;;;17.70;99.90;;;;;;5034675;28;20461;-82
2021/08/20 06:25:17;;;;;;;0.40;0.40;;;17.80;99.90;;;;;;5034985;28;20790;-82
2021/08/20 06:27:44;;;;;;;0.50;0.40;;;17.80;99.90;;;;;;5034970;28;20776;-82
2021/08/20 06:30:11;;;;;;;1.10;0.50;;;17.90;99.90;;;;;;5034730;28;20482;-82
2021/08/20 06:32:38;;;;;;;0.63;0.57;;;17.90;99.90;;;;;;5034748;28;20470;-82
2021/08/20 06:35:05;;;;;;;0.33;0.30;;;18.00;99.90;;;;;;5034758;28;20459;-82
2021/08/20 06:37:32;;;;;;;0.40;0.30;;;18.10;99.90;;;;;;5034410;28;20951;-82
2021/08/20 06:39:59;;;;;;;0.50;0.40;;;18.10;99.90;;;;;;5034854;28;20451;-82
2021/08/20 06:42:27;;;;;;;0.63;0.60;;;18.20;99.90;;;;;;5034704;28;20489;-85
2021/08/20 06:44:54;;;;;;;1.67;0.47;;;18.30;99.90;;;;;;5034402;28;20439;-85
2021/08/20 06:47:20;;;;;;;0.90;0.30;;;18.30;99.90;;;;;;5034312;28;20486;-85
2021/08/20 06:49:47;;;;;;;0.40;0.40;;;18.40;99.90;;;;;;5034531;28;20447;-85
2021/08/20 06:52:14;;;;;;;2.23;0.50;;;18.50;99.90;;;;;;5034071;28;20490;-85
2021/08/20 06:54:41;;;;;;;1.50;1.00;;;18.60;99.90;;;;;;5034326;28;20783;-85
2021/08/20 06:57:08;;;;;;;0.60;0.50;;;18.60;99.90;;;;;;5034399;28;20890;-85
2021/08/20 06:59:37;;;;;;;0.73;0.60;;;18.70;99.90;;;;;;5034588;28;20442;-85
2021/08/20 07:02:04;;;;;;;0.83;0.60;;;18.70;99.90;;;;;;5034036;28;20459;-85
2021/08/20 07:04:33;;;;;;;0.50;0.50;;;18.70;99.90;;;;;;5034202;28;20439;-86
2021/08/20 07:07:09;;;;;;;1.67;0.87;;;18.70;99.90;;;;;;5033996;28;20451;-85
2021/08/20 07:09:56;;;;;;;1.07;0.70;;;18.80;99.90;;;;;;5034196;28;20414;-85
2021/08/20 07:12:36;;;;;;;0.73;0.73;;;18.90;99.90;;;;;;5033904;28;20494;-85
2021/08/20 07:19:18;;;;;;;5.53;0.70;;;19.10;99.90;;;;;;5031592;28;20446;-84
2021/08/20 07:21:45;;;;;;;1.90;0.90;;;19.20;99.90;;;;;;5031262;28;20509;-84
2021/08/20 07:24:54;;;;;;;1.00;0.73;;;19.40;99.90;;;;;;5033602;28;20945;-85
2021/08/20 07:27:25;;;;;;;1.27;0.70;;;19.60;99.90;;;;;;5033562;28;20945;-85
2021/08/20 07:29:52;;;;;;;2.47;0.90;;;19.90;99.90;;;;;;5033130;28;20455;-85
2021/08/20 07:32:19;;;;;;;1.50;0.80;;;20.00;99.90;;;;;;5033266;28;20489;-84
2021/08/20 07:34:47;;;;;;;1.17;0.90;;;20.00;99.90;;;;;;5033671;28;20934;-85
2021/08/20 07:37:14;;;;;;;1.30;0.80;;;20.00;99.90;;;;;;5034008;28;20462;-84
2021/08/20 07:39:41;;;;;;;1.43;0.70;;;20.10;99.90;;;;;;5033292;28;21053;-85
2021/08/20 07:42:08;;;;;;;1.17;0.97;;;20.30;99.90;;;;;;5033201;28;20993;-85
2021/08/20 07:44:35;;;;;;;1.13;0.80;;;20.40;99.90;;;;;;5033377;28;20973;-85
2021/08/20 07:47:02;;;;;;;2.33;1.03;;;20.50;99.90;;;;;;5033834;28;20488;-85
2021/08/20 07:49:29;;;;;;;1.60;1.07;;;20.70;99.90;;;;;;5034312;28;20431;-85
2021/08/20 07:51:58;;;;;;;0.80;0.67;;;20.80;99.90;;;;;;5033168;28;21025;-87
2021/08/20 07:54:25;;;;;;;0.70;0.70;;;20.90;99.90;;;;;;5033220;28;20438;-87
2021/08/20 07:56:51;;;;;;;2.30;0.87;;;20.80;99.90;;;;;;5033398;28;20444;-87
2021/08/20 07:59:18;;;;;;;3.23;1.33;;;20.80;99.90;;;;;;5033885;28;20445;-87
2021/08/20 08:01:45;;;;;;;1.43;1.10;;;20.90;99.90;;;;;;5033496;28;20454;-86
2021/08/20 08:04:13;;;;;;;1.17;1.07;;;20.80;99.90;;;;;;5034016;28;20450;-86
2021/08/20 08:06:39;;;;;;;0.90;0.90;;;20.80;99.90;;;;;;5034157;28;20787;-86
2021/08/20 08:09:08;;;;;;;0.80;0.80;;;20.90;99.90;;;;;;5033224;28;20450;-86
2021/08/20 08:11:35;;;;;;;0.87;0.80;;;20.90;99.90;;;;;;5038452;28;20482;-86
2021/08/20 08:14:05;;;;;;;1.00;0.90;;;20.80;99.90;;;;;;5039553;28;20956;-86
2021/08/20 08:16:33;;;;;;;1.20;0.77;;;20.60;99.90;;;;;;5039742;28;20457;-86
2021/08/20 08:19:00;;;;;;;1.10;1.00;;;20.50;99.90;;;;;;5040022;28;20437;-86
2021/08/20 08:21:26;;;;;;;1.90;1.00;;;20.70;99.90;;;;;;5039887;28;20496;-85
2021/08/20 08:23:53;;;;;;;0.83;0.83;;;21.00;99.90;;;;;;5039930;28;20470;-85
2021/08/20 08:26:23;;;;;;;2.30;0.90;;;21.40;99.90;;;;;;5039750;28;20952;-85
2021/08/20 08:28:49;;;;;;;0.87;0.80;;;21.70;99.90;;;;;;5040198;28;20446;-86
2021/08/20 08:31:16;;;;;;;0.70;0.70;;;21.70;99.90;;;;;;5039953;28;20480;-85
2021/08/20 08:33:43;;;;;;;1.17;0.87;;;21.50;99.90;;;;;;5039704;28;20470;-85
2021/08/20 08:36:10;;;;;;;1.70;1.20;;;21.40;99.90;;;;;;5039734;28;20407;-85
2021/08/20 08:38:37;;;;;;;1.17;0.80;;;21.20;99.90;;;;;;5039791;28;20776;-85
2021/08/20 08:41:04;;;;;;;1.00;0.90;;;21.10;99.90;;;;;;5039418;28;20441;-85
2021/08/20 08:43:32;;;;;;;0.90;0.80;;;21.00;99.90;;;;;;5039633;28;20449;-85
2021/08/20 08:46:04;;;;;;;1.33;1.03;;;20.90;99.90;;;;;;5039523;28;20422;-85
2021/08/20 08:48:40;;;;;;;1.20;1.10;;;20.80;99.90;;;;;;5022107;28;20484;-85
2021/08/20 08:51:09;;;;;;;1.03;0.80;;;20.80;99.90;;;;;;5039867;28;20462;-86
2021/08/20 08:53:36;;;;;;;2.90;1.50;;;20.70;99.90;;;;;;5040106;28;20473;-85
2021/08/20 08:56:03;;;;;;;2.50;1.33;;;20.60;99.90;;;;;;5039569;28;20430;-85
2021/08/20 08:58:32;;;;;;;1.90;1.27;;;20.60;99.90;;;;;;5039554;28;20477;-86
2021/08/20 09:00:59;;;;;;;1.97;0.87;;;20.60;99.90;;;;;;5039388;28;20440;-86
2021/08/20 09:03:27;;;;;;;1.37;0.90;;;20.60;99.90;;;;;;5039404;28;20481;-86
2021/08/20 09:05:55;;;;;;;1.93;1.10;;;20.60;99.90;;;;;;5039457;28;20948;-85
2021/08/20 09:08:24;;;;;;;1.40;1.13;;;20.50;99.90;;;;;;5039692;28;20516;-87
2021/08/20 09:10:52;;;;;;;1.60;1.47;;;20.60;99.90;;;;;;5039097;28;20418;-84
2021/08/20 09:13:20;;;;;;;2.67;1.20;;;20.80;99.90;;;;;;5039035;28;20461;-85
2021/08/20 09:15:48;;;;;;;0.80;0.80;;;21.00;99.90;;;;;;5039283;28;20438;-85
2021/08/20 09:18:31;;;;;;;1.33;0.90;;;21.30;99.90;;;;;;5039342;28;20917;-85
2021/08/20 09:21:00;;;;;;;1.30;0.60;;;21.50;99.90;;;;;;5038859;28;20430;-85
2021/08/20 09:26:29;;;;;;;0.47;0.47;;;22.10;99.90;;;;;;5035097;28;20434;-84
2021/08/20 09:38:30;;;;;;;0.90;0.70;;;22.70;99.90;;;;;;5035106;28;20512;-84
2021/08/20 09:44:02;;;;;;;0.83;0.73;;;22.50;99.90;;;;;;5032756;28;20554;-84
2021/08/20 09:46:58;;;;;;;0.80;0.80;;;22.20;99.90;;;;;;5035753;28;20456;-85
2021/08/20 09:49:31;;;;;;;0.60;0.60;;;22.00;99.90;;;;;;5035702;28;20446;-84
2021/08/20 09:55:14;;;;;;;1.07;0.80;;;21.60;99.90;;;;;;5034835;28;20953;-84
2021/08/20 09:57:41;;;;;;;1.10;0.80;;;21.50;99.90;;;;;;5035624;28;20476;-84
2021/08/20 10:00:23;;;;;;;3.73;0.70;;;21.50;99.90;;;;;;5035653;28;20534;-85
2021/08/20 10:12:28;;;;;;;0.73;0.63;;;22.30;99.90;;;;;;5008598;28;20492;-85
2021/08/20 10:15:01;;;;;;;1.13;0.67;;;22.30;99.90;;;;;;5032504;28;20610;-85
2021/08/20 10:17:30;;;;;;;1.10;0.63;;;22.50;99.90;;;;;;5035930;28;20446;-85
2021/08/20 10:19:59;;;;;;;0.77;0.77;;;22.80;99.90;;;;;;5035272;28;20498;-85
2021/08/20 10:22:26;;;;;;;1.67;0.80;;;22.90;99.90;;;;;;5035045;28;20224;-85
2021/08/20 10:24:54;;;;;;;1.00;1.00;;;23.20;99.90;;;;;;5034879;28;20576;-85
2021/08/20 10:27:22;;;;;;;1.10;0.90;;;23.20;99.90;;;;;;5034937;28;20191;-85
2021/08/20 10:29:54;;;;;;;1.73;1.03;;;23.30;99.90;;;;;;5035494;28;20192;-83
2021/08/20 10:32:21;;;;;;;2.00;1.17;;;23.30;99.90;;;;;;5034444;28;20227;-83
2021/08/20 10:34:48;;;;;;;1.53;1.40;;;23.30;99.90;;;;;;5034055;28;20651;-84
2021/08/20 10:37:27;;;;;;;0.70;0.70;;;23.40;99.90;;;;;;5035509;28;20214;-83
2021/08/20 10:39:55;;;;;;;1.30;1.20;;;23.50;99.90;;;;;;5034930;28;20559;-84
2021/08/20 10:42:24;;;;;;;1.37;1.10;;;23.50;99.90;;;;;;5034298;28;20219;-84
2021/08/20 10:45:04;;;;;;;0.80;0.80;;;23.50;99.90;;;;;;5034732;28;20184;-86
2021/08/20 11:20:51;;;;;;;0.50;0.50;;;23.30;99.90;;;;;;4819921;29;20637;-85
2021/08/20 11:34:03;;;;;;;1.23;0.70;;;23.20;99.90;;;;;;4786443;29;20273;-85
2021/08/20 11:39:22;;;;;;;1.03;0.80;;;23.60;99.90;;;;;;4786350;30;20611;-85
2021/08/20 11:41:53;;;;;;;1.00;1.00;;;23.80;99.90;;;;;;4786636;30;20219;-85
2021/08/20 11:48:35;;;;;;;0.90;0.70;;;24.00;99.90;;;;;;4786503;29;20249;-86
2021/08/20 11:58:33;;;;;;;0.60;0.60;;;24.00;99.90;;;;;;4854302;29;20224;-86
2021/08/20 12:01:43;;;;;;;0.95;0.85;;;24.10;99.90;;;;;;4853202;29;20636;-86
2021/08/20 12:17:48;;;;;;;0.95;0.70;;;24.70;99.90;;;;;;4890648;29;20218;-86
2021/08/20 12:20:23;;;;;;;0.82;0.70;;;24.60;99.90;;;;;;4956346;28;20237;-85
2021/08/20 12:22:54;;;;;;;1.20;0.85;;;24.50;99.90;;;;;;4994694;28;20714;-86
2021/08/20 12:25:22;;;;;;;1.02;1.02;;;24.40;99.90;;;;;;4993609;28;20189;-86
2021/08/20 12:27:51;;;;;;;1.50;0.80;;;24.10;99.90;;;;;;4993537;28;20668;-85
2021/08/20 12:30:24;;;;;;;1.17;0.60;;;24.10;99.90;;;;;;4993563;28;20636;-86
2021/08/20 12:32:55;;;;;;;0.77;0.60;;;24.00;99.90;;;;;;4993444;28;20319;-85
2021/08/20 12:35:23;;;;;;;1.45;0.70;;;24.00;99.90;;;;;;4993839;28;20212;-85
2021/08/20 12:38:00;;;;;;;1.25;0.90;;;23.90;99.90;;;;;;4994302;28;20458;-86
2021/08/20 12:40:34;;;;;;;1.30;1.05;;;23.80;99.90;;;;;;4993882;28;20208;-85
2021/08/20 12:43:05;;;;;;;0.80;0.60;;;23.80;99.90;;;;;;4994671;28;20224;-86
2021/08/20 12:45:33;;;;;;;1.03;0.70;;;23.80;99.90;;;;;;4994140;28;20204;-85
2021/08/20 12:48:04;;;;;;;1.33;1.00;;;23.80;99.90;;;;;;4994023;28;20213;-85
2021/08/20 12:50:32;;;;;;;4.23;0.60;;;23.70;99.90;;;;;;4993478;28;20212;-86
2021/08/20 12:53:04;;;;;;;0.70;0.70;;;23.70;99.90;;;;;;4993547;28;20233;-85
2021/08/20 12:55:33;;;;;;;0.47;0.47;;;23.60;99.90;;;;;;4993121;28;20684;-85
2021/08/20 12:58:02;;;;;;;0.50;0.50;;;23.50;99.90;;;;;;4996376;28;20711;-84
2021/08/20 13:00:32;;;;;;;0.97;0.60;;;23.50;99.90;;;;;;4996754;28;20311;-85
2021/08/20 13:03:06;;;;;;;0.60;0.60;;;23.50;99.90;;;;;;4997824;28;20611;-83
2021/08/20 13:05:33;;;;;;;1.90;0.90;;;23.50;99.90;;;;;;4996234;28;20300;-85
2021/08/20 13:08:02;;;;;;;0.80;0.63;;;23.60;99.90;;;;;;4997464;28;20219;-85
2021/08/20 13:10:29;;;;;;;0.90;0.60;;;23.60;99.90;;;;;;4997322;28;20197;-86
2021/08/20 13:12:57;;;;;;;0.60;0.60;;;23.60;99.90;;;;;;4997420;28;20272;-84
2021/08/20 13:15:30;;;;;;;1.80;1.00;;;23.60;99.90;;;;;;4997384;28;20264;-85
2021/08/20 13:17:57;;;;;;;2.23;1.37;;;23.60;99.90;;;;;;4997677;28;20219;-86
2021/08/20 13:20:25;;;;;;;0.70;0.70;;;23.40;99.90;;;;;;4996574;28;20641;-86
2021/08/20 13:22:57;;;;;;;0.63;0.60;;;23.40;99.90;;;;;;4997159;28;20559;-86
2021/08/20 13:25:25;;;;;;;0.70;0.70;;;23.30;99.90;;;;;;4996478;28;20216;-84
2021/08/20 13:27:52;;;;;;;1.20;0.70;;;23.30;99.90;;;;;;4996848;28;20444;-85
2021/08/20 13:30:19;;;;;;;0.60;0.60;;;23.40;99.90;;;;;;4996518;28;20189;-86
2021/08/20 13:32:46;;;;;;;0.70;0.70;;;23.40;99.90;;;;;;4996806;28;20267;-85
2021/08/20 13:35:13;;;;;;;0.67;0.50;;;23.30;99.90;;;;;;4997645;28;20200;-85
2021/08/20 13:37:41;;;;;;;0.97;0.90;;;23.20;99.90;;;;;;4996736;28;20292;-85
2021/08/20 13:40:12;;;;;;;0.57;0.53;;;23.10;99.90;;;;;;4996593;28;20208;-86
2021/08/20 13:42:39;;;;;;;0.67;0.67;;;23.00;99.90;;;;;;4995866;28;20730;-85
2021/08/20 13:45:07;;;;;;;1.00;0.80;;;22.90;99.90;;;;;;4996695;28;20436;-85
2021/08/20 13:47:33;;;;;;;0.97;0.97;;;23.00;99.90;;;;;;4996424;28;20193;-85
2021/08/20 13:50:02;;;;;;;0.70;0.53;;;23.00;99.90;;;;;;4996430;28;20507;-85
2021/08/20 13:52:29;;;;;;;1.57;1.00;;;22.90;99.90;;;;;;4996648;28;20479;-86
2021/08/20 13:54:57;;;;;;;0.70;0.70;;;22.80;99.90;;;;;;4996974;28;20452;-85
2021/08/20 13:57:24;;;;;;;1.20;0.73;;;22.90;99.90;;;;;;4996280;28;20474;-85
2021/08/20 13:59:52;;;;;;;1.27;0.70;;;22.90;99.90;;;;;;4996056;28;20571;-86
2021/08/20 14:02:19;;;;;;;0.60;0.60;;;22.90;99.90;;;;;;4996777;28;20232;-85
2021/08/20 14:04:46;;;;;;;0.90;0.80;;;22.90;99.90;;;;;;4996506;28;20472;-85
2021/08/20 14:07:13;;;;;;;1.57;0.80;;;22.90;99.90;;;;;;4996052;28;20440;-84
2021/08/20 14:09:39;;;;;;;0.73;0.70;;;23.00;99.90;;;;;;4995541;28;20204;-85
2021/08/20 14:12:08;;;;;;;0.83;0.70;;;23.00;99.90;;;;;;4996478;28;20483;-85
2021/08/20 14:14:35;;;;;;;0.70;0.70;;;23.00;99.90;;;;;;4996693;28;20204;-85
2021/08/20 14:17:02;;;;;;;0.50;0.50;;;23.00;99.90;;;;;;4995760;28;20649;-85
2021/08/20 14:19:29;;;;;;;0.80;0.80;;;23.10;99.90;;;;;;4995690;28;20458;-85
2021/08/20 14:21:56;;;;;;;2.27;0.90;;;23.20;99.90;;;;;;4996202;28;20236;-85
2021/08/20 14:24:22;;;;;;;0.77;0.50;;;23.30;99.90;;;;;;4995873;28;20296;-85
2021/08/20 14:26:49;;;;;;;0.83;0.80;;;23.30;99.90;;;;;;4995629;28;20581;-85
2021/08/20 14:29:18;;;;;;;0.83;0.80;;;23.30;99.90;;;;;;4995673;28;20192;-85
2021/08/20 14:37:22;;;;;;;0.93;0.87;;;23.40;99.90;;;;;;4994161;28;20220;-85
2021/08/20 14:39:55;;;;;;;0.67;0.60;;;23.50;99.90;;;;;;4994676;28;20203;-85
2021/08/20 14:42:48;;;;;;;1.37;0.90;;;23.50;99.90;;;;;;4995271;28;20228;-85
2021/08/20 14:45:54;;;;;;;0.53;0.53;;;23.50;99.90;;;;;;4991991;28;20223;-85
2021/08/20 14:55:43;;;;;;;1.13;0.80;;;23.40;99.90;;;;;;4859822;29;20229;-84
2021/08/20 15:01:47;;;;;;;1.53;1.33;;;23.20;99.90;;;;;;4936021;28;20209;-85
2021/08/20 15:04:41;;;;;;;0.60;0.60;;;23.10;99.90;;;;;;4993645;28;20233;-84
2021/08/20 15:11:47;;;;;;;1.67;0.70;;;23.10;99.90;;;;;;4954090;29;20306;-86